Time,TemperatureF,DewpointF,PressureIn,WindDirection,WindDirectionDegrees,WindSpeedMPH,WindSpeedGustMPH,Humidity,HourlyPrecipIn,Conditions,Clouds,dailyrainin,SolarRadiationWatts/m^2,SoftwareType,DateUTC
2013-01-19 00:02:00,34.3,27.9,30.51,NE,44,0.0,0.0,77,0.00,,---,0.00,0.00,VWS V14.01,2013-01-19 05:02:00,
2013-01-19 00:03:00,34.2,27.8,30.51,NE,44,0.0,0.0,77,0.00,,---,0.00,0.00,VWS V14.01,2013-01-19 05:03:00,
2013-01-19 00:08:00,33.8,27.7,30.50,NE,44,0.0,0.0,78,0.00,,---,0.00,0.00,VWS V14.01,2013-01-19 05:08:00,
2013-01-19 00:14:00,33.4,27.9,30.51,NE,44,0.0,0.0,80,0.00,,---,0.00,0.00,VWS V14.01,2013-01-19 05:14:00,
2013-01-19 00:19:00,33.2,27.7,30.51,NE,44,0.0,0.0,80,0.00,,---,0.00,0.00,VWS V14.01,2013-01-19 05:19:00,
2013-01-19 00:24:00,33.0,27.8,30.51,NE,44,0.0,0.0,81,0.00,,---,0.00,0.00,VWS V14.01,2013-01-19 05:24:00,
2013-01-19 00:29:00,32.9,27.7,30.51,NE,44,0.0,0.0,81,0.00,,---,0.00,0.00,VWS V14.01,2013-01-19 05:29:00,
2013-01-19 00:34:00,32.7,27.5,30.50,NE,44,0.0,0.0,81,0.00,,---,0.00,0.00,VWS V14.01,2013-01-19 05:34:00,
2013-01-19 00:39:00,32.5,27.6,30.50,NE,44,0.0,0.0,82,0.00,,---,0.00,0.00,VWS V14.01,2013-01-19 05:39:00,
2013-01-19 00:44:00,32.3,27.4,30.51,NE,44,0.0,0.0,82,0.00,,---,0.00,0.00,VWS V14.01,2013-01-19 05:44:00,
2013-01-19 00:49:00,32.1,27.5,30.51,NE,44,0.0,0.0,83,0.00,,---,0.00,0.00,VWS V14.01,2013-01-19 05:49:00,
2013-01-19 00:54:00,31.9,27.6,30.51,NE,44,0.0,0.0,84,0.00,,---,0.00,0.00,VWS V14.01,2013-01-19 05:54:00,
2013-01-19 00:59:00,31.7,27.7,30.51,NE,44,0.0,0.0,85,0.00,,---,0.00,0.00,VWS V14.01,2013-01-19 05:59:00,
2013-01-19 01:04:00,31.5,27.5,30.51,NE,44,0.0,0.0,85,0.00,,---,0.00,0.00,VWS V14.01,2013-01-19 06:04:00,
2013-01-19 01:10:00,31.4,27.4,30.50,NE,44,0.0,0.0,85,0.00,,---,0.00,0.00,VWS V14.01,2013-01-19 06:10:00,
2013-01-19 01:15:00,31.3,27.3,30.50,NE,44,0.0,0.0,85,0.00,,---,0.00,0.00,VWS V14.01,2013-01-19 06:15:00,
2013-01-19 01:20:00,31.1,27.1,30.51,NE,44,0.0,0.0,85,0.00,,---,0.00,0.00,VWS V14.01,2013-01-19 06:20:00,
2013-01-19 01:25:00,31.0,27.3,30.50,NE,44,0.0,0.0,86,0.00,,---,0.00,0.00,VWS V14.01,2013-01-19 06:25:00,
2013-01-19 01:30:00,30.8,27.1,30.51,NE,44,0.0,0.0,86,0.00,,---,0.00,0.00,VWS V14.01,2013-01-19 06:30:00,
2013-01-19 01:35:00,30.7,27.3,30.50,NE,44,0.0,0.0,87,0.00,,---,0.00,0.00,VWS V14.01,2013-01-19 06:35:00,
2013-01-19 01:40:00,30.6,27.2,30.50,NE,44,0.0,0.0,87,0.00,,---,0.00,0.00,VWS V14.01,2013-01-19 06:40:00,
2013-01-19 01:46:00,30.5,27.1,30.50,NE,44,0.0,0.0,87,0.00,,---,0.00,0.00,VWS V14.01,2013-01-19 06:46:00,
2013-01-19 01:51:00,30.4,27.3,30.50,NE,44,0.0,0.0,88,0.00,,---,0.00,0.00,VWS V14.01,2013-01-19 06:51:00,
2013-01-19 01:56:00,30.3,27.2,30.50,NE,44,0.0,0.0,88,0.00,,---,0.00,0.00,VWS V14.01,2013-01-19 06:56:00,
2013-01-19 02:01:00,30.2,27.1,30.50,NE,44,0.0,0.0,88,0.00,,---,0.00,0.00,VWS V14.01,2013-01-19 07:01:00,
2013-01-19 02:06:00,30.1,27.3,30.50,NE,44,0.0,0.0,89,0.00,,---,0.00,0.00,VWS V14.01,2013-01-19 07:06:00,
2013-01-19 02:11:00,29.9,27.1,30.50,NE,44,0.0,0.0,89,0.00,,---,0.00,0.00,VWS V14.01,2013-01-19 07:11:00,
2013-01-19 02:16:00,29.9,27.1,30.50,NE,44,0.0,0.0,89,0.00,,---,0.00,0.00,VWS V14.01,2013-01-19 07:16:00,
2013-01-19 02:21:00,29.8,27.0,30.50,NE,44,0.0,0.0,89,0.00,,---,0.00,0.00,VWS V14.01,2013-01-19 07:21:00,
2013-01-19 02:27:00,29.8,27.0,30.50,NE,44,0.0,0.0,89,0.00,,---,0.00,0.00,VWS V14.01,2013-01-19 07:27:00,
2013-01-19 02:32:00,29.8,27.0,30.49,NE,44,0.0,0.0,89,0.00,,---,0.00,0.00,VWS V14.01,2013-01-19 07:32:00,
2013-01-19 02:37:00,29.7,26.9,30.49,NE,44,0.0,0.0,89,0.00,,---,0.00,0.00,VWS V14.01,2013-01-19 07:37:00,
2013-01-19 02:42:00,29.7,26.9,30.49,NE,44,0.0,0.0,89,0.00,,---,0.00,0.00,VWS V14.01,2013-01-19 07:42:00,
2013-01-19 02:47:00,29.6,26.8,30.49,NE,44,0.0,0.0,89,0.00,,---,0.00,0.00,VWS V14.01,2013-01-19 07:47:00,
2013-01-19 02:52:00,29.6,27.0,30.49,NE,44,0.0,0.0,90,0.00,,---,0.00,0.00,VWS V14.01,2013-01-19 07:52:00,
2013-01-19 02:57:00,29.7,27.1,30.49,NE,44,0.0,0.0,90,0.00,,---,0.00,0.00,VWS V14.01,2013-01-19 07:57:00,
2013-01-19 03:03:00,29.7,27.1,30.49,NE,44,0.0,0.0,90,0.00,,---,0.00,0.00,VWS V14.01,2013-01-19 08:03:00,
2013-01-19 03:08:00,29.7,27.1,30.49,NE,44,0.0,0.0,90,0.00,,---,0.00,0.00,VWS V14.01,2013-01-19 08:08:00,
2013-01-19 03:13:00,29.8,27.2,30.49,NE,44,0.0,0.0,90,0.00,,---,0.00,0.00,VWS V14.01,2013-01-19 08:13:00,
2013-01-19 03:18:00,29.9,27.3,30.49,NE,44,0.0,0.0,90,0.00,,---,0.00,0.00,VWS V14.01,2013-01-19 08:18:00,
2013-01-19 03:23:00,29.9,27.1,30.49,NE,44,0.0,0.0,89,0.00,,---,0.00,0.00,VWS V14.01,2013-01-19 08:23:00,
2013-01-19 03:28:00,29.9,27.1,30.48,NE,44,0.0,0.0,89,0.00,,---,0.00,0.00,VWS V14.01,2013-01-19 08:28:00,
2013-01-19 03:33:00,29.9,27.1,30.48,NE,44,0.0,0.0,89,0.00,,---,0.00,0.00,VWS V14.01,2013-01-19 08:33:00,
2013-01-19 03:38:00,29.9,27.1,30.48,NE,44,0.0,0.0,89,0.00,,---,0.00,0.00,VWS V14.01,2013-01-19 08:38:00,
2013-01-19 03:43:00,30.0,27.2,30.48,NE,44,0.0,0.0,89,0.00,,---,0.00,0.00,VWS V14.01,2013-01-19 08:43:00,
2013-01-19 03:48:00,30.1,27.3,30.48,NE,44,0.0,0.0,89,0.00,,---,0.00,0.00,VWS V14.01,2013-01-19 08:48:00,
2013-01-19 03:53:00,30.1,27.3,30.47,NE,44,0.0,0.0,89,0.00,,---,0.00,0.00,VWS V14.01,2013-01-19 08:53:00,
2013-01-19 03:58:00,30.3,27.2,30.47,NE,44,0.0,1.0,88,0.00,,---,0.00,0.00,VWS V14.01,2013-01-19 08:58:00,
2013-01-19 04:04:00,30.5,27.4,30.47,NE,44,0.0,0.0,88,0.00,,---,0.00,0.00,VWS V14.01,2013-01-19 09:04:00,
2013-01-19 04:09:00,30.5,27.1,30.46,NE,44,0.0,0.0,87,0.00,,---,0.00,0.00,VWS V14.01,2013-01-19 09:09:00,
2013-01-19 04:14:00,30.5,27.1,30.46,NE,44,0.0,0.0,87,0.00,,---,0.00,0.00,VWS V14.01,2013-01-19 09:14:00,
2013-01-19 04:19:00,30.5,27.1,30.46,NE,44,0.0,0.0,87,0.00,,---,0.00,0.00,VWS V14.01,2013-01-19 09:19:00,
2013-01-19 04:24:00,30.5,27.1,30.46,NE,44,0.0,0.0,87,0.00,,---,0.00,0.00,VWS V14.01,2013-01-19 09:24:00,
2013-01-19 04:29:00,30.5,27.1,30.45,NE,44,0.0,0.0,87,0.00,,---,0.00,0.00,VWS V14.01,2013-01-19 09:29:00,
2013-01-19 04:35:00,30.5,27.1,30.46,NE,44,0.0,0.0,87,0.00,,---,0.00,0.00,VWS V14.01,2013-01-19 09:35:00,
2013-01-19 04:40:00,30.5,27.1,30.46,NE,44,0.0,0.0,87,0.00,,---,0.00,0.00,VWS V14.01,2013-01-19 09:40:00,
2013-01-19 04:45:00,30.5,26.8,30.46,NE,44,0.0,0.0,86,0.00,,---,0.00,0.00,VWS V14.01,2013-01-19 09:45:00,
2013-01-19 04:50:00,30.6,26.9,30.46,NE,44,0.0,0.0,86,0.00,,---,0.00,0.00,VWS V14.01,2013-01-19 09:50:00,
2013-01-19 04:55:00,30.7,27.0,30.46,NE,44,0.0,0.0,86,0.00,,---,0.00,0.00,VWS V14.01,2013-01-19 09:55:00,
2013-01-19 05:00:00,30.7,27.0,30.45,NE,44,0.0,0.0,86,0.00,,---,0.00,0.00,VWS V14.01,2013-01-19 10:00:00,
2013-01-19 05:05:00,30.7,27.0,30.45,NE,44,0.0,1.0,86,0.00,,---,0.00,0.00,VWS V14.01,2013-01-19 10:05:00,
2013-01-19 05:11:00,30.8,27.1,30.45,NE,44,0.0,0.0,86,0.00,,---,0.00,0.00,VWS V14.01,2013-01-19 10:11:00,
2013-01-19 05:16:00,30.9,26.9,30.45,NE,44,0.0,0.0,85,0.00,,---,0.00,0.00,VWS V14.01,2013-01-19 10:16:00,
2013-01-19 05:21:00,30.9,26.9,30.45,NE,44,0.0,0.0,85,0.00,,---,0.00,0.00,VWS V14.01,2013-01-19 10:21:00,
2013-01-19 05:27:00,31.0,27.0,30.45,NE,44,0.0,0.0,85,0.00,,---,0.00,0.00,VWS V14.01,2013-01-19 10:27:00,
2013-01-19 05:32:00,31.0,27.0,30.45,NE,44,0.0,0.0,85,0.00,,---,0.00,0.00,VWS V14.01,2013-01-19 10:32:00,
2013-01-19 05:37:00,31.0,27.0,30.45,NE,44,0.0,0.0,85,0.00,,---,0.00,0.00,VWS V14.01,2013-01-19 10:37:00,
2013-01-19 05:44:00,30.8,26.8,30.46,NE,44,0.0,0.0,85,0.00,,---,0.00,0.00,VWS V14.01,2013-01-19 10:44:00,
2013-01-19 05:49:00,30.7,27.0,30.46,NE,44,0.0,0.0,86,0.00,,---,0.00,0.00,VWS V14.01,2013-01-19 10:49:00,
2013-01-19 05:54:00,30.6,26.9,30.46,NE,44,0.0,0.0,86,0.00,,---,0.00,0.00,VWS V14.01,2013-01-19 10:54:00,
2013-01-19 05:59:00,30.5,26.8,30.46,NE,44,0.0,0.0,86,0.00,,---,0.00,0.00,VWS V14.01,2013-01-19 10:59:00,
2013-01-19 06:05:00,30.4,26.7,30.45,NE,44,0.0,0.0,86,0.00,,---,0.00,0.00,VWS V14.01,2013-01-19 11:05:00,
2013-01-19 06:10:00,30.3,26.9,30.45,NE,44,0.0,0.0,87,0.00,,---,0.00,0.00,VWS V14.01,2013-01-19 11:10:00,
2013-01-19 07:47:00,29.0,26.2,30.47,NE,44,0.0,0.0,89,0.00,,---,0.00,16.00,VWS V14.01,2013-01-19 12:47:00,
2013-01-19 07:48:00,29.0,26.2,30.47,NE,44,0.0,0.0,89,0.00,,---,0.00,18.00,VWS V14.01,2013-01-19 12:48:00,
2013-01-19 07:49:00,29.0,26.2,30.47,NE,44,0.0,0.0,89,0.00,,---,0.00,18.00,VWS V14.01,2013-01-19 12:49:00,
2013-01-19 07:51:00,29.0,26.4,30.47,NE,44,0.0,0.0,90,0.00,,---,0.00,18.00,VWS V14.01,2013-01-19 12:51:00,
2013-01-19 07:56:00,29.0,26.4,30.47,NE,44,0.0,0.0,90,0.00,,---,0.00,23.00,VWS V14.01,2013-01-19 12:56:00,
2013-01-19 08:01:00,29.0,26.4,30.47,NE,44,0.0,0.0,90,0.00,,---,0.00,25.00,VWS V14.01,2013-01-19 13:01:00,
2013-01-19 08:06:00,29.1,26.5,30.47,NE,44,0.0,0.0,90,0.00,,---,0.00,28.00,VWS V14.01,2013-01-19 13:06:00,
2013-01-19 08:11:00,29.4,26.8,30.47,NE,44,0.0,0.0,90,0.00,,---,0.00,30.00,VWS V14.01,2013-01-19 13:11:00,
2013-01-19 08:17:00,29.8,27.5,30.47,NE,44,0.0,0.0,91,0.00,,---,0.00,32.00,VWS V14.01,2013-01-19 13:17:00,
2013-01-19 08:22:00,30.5,28.2,30.47,NE,44,0.0,0.0,91,0.00,,---,0.00,33.00,VWS V14.01,2013-01-19 13:22:00,
2013-01-19 08:27:00,31.0,29.0,30.47,NE,44,0.0,0.0,92,0.00,,---,0.00,35.00,VWS V14.01,2013-01-19 13:27:00,
2013-01-19 08:32:00,31.6,29.5,30.47,NE,44,0.0,0.0,92,0.00,,---,0.00,49.00,VWS V14.01,2013-01-19 13:32:00,
2013-01-19 08:37:00,32.0,29.9,30.47,NE,44,0.0,0.0,92,0.00,,---,0.00,74.00,VWS V14.01,2013-01-19 13:37:00,
2013-01-19 08:42:00,32.4,30.3,30.48,NE,44,0.0,0.0,92,0.00,,---,0.00,102.00,VWS V14.01,2013-01-19 13:42:00,
2013-01-19 08:48:00,32.8,30.7,30.48,NE,44,0.0,0.0,92,0.00,,---,0.00,132.00,VWS V14.01,2013-01-19 13:48:00,
2013-01-19 08:53:00,33.3,31.2,30.48,NE,44,0.0,0.0,92,0.00,,---,0.00,151.00,VWS V14.01,2013-01-19 13:53:00,
2013-01-19 08:58:00,33.8,31.7,30.47,NE,44,0.0,0.0,92,0.00,,---,0.00,151.00,VWS V14.01,2013-01-19 13:58:00,
2013-01-19 09:03:00,34.4,32.3,30.48,NE,44,0.0,0.0,92,0.00,,---,0.00,171.00,VWS V14.01,2013-01-19 14:03:00,
2013-01-19 09:08:00,35.2,33.1,30.47,NE,44,0.0,0.0,92,0.00,,---,0.00,199.00,VWS V14.01,2013-01-19 14:08:00,
2013-01-19 09:13:00,36.2,33.8,30.48,NE,47,0.0,0.0,91,0.00,,---,0.00,223.00,VWS V14.01,2013-01-19 14:13:00,
2013-01-19 09:18:00,37.5,33.7,30.48,NE,55,0.0,2.0,86,0.00,,---,0.00,225.00,VWS V14.01,2013-01-19 14:18:00,
2013-01-19 09:24:00,38.8,33.5,30.48,NE,56,0.0,0.0,81,0.00,,---,0.00,221.00,VWS V14.01,2013-01-19 14:24:00,
2013-01-19 09:29:00,40.1,33.2,30.48,ENE,63,0.0,2.0,76,0.00,,---,0.00,176.00,VWS V14.01,2013-01-19 14:29:00,
2013-01-19 09:34:00,41.1,33.8,30.48,ENE,77,0.0,0.0,75,0.00,,---,0.00,199.00,VWS V14.01,2013-01-19 14:34:00,
2013-01-19 09:39:00,42.0,34.3,30.48,ENE,76,0.0,0.0,74,0.00,,---,0.00,207.00,VWS V14.01,2013-01-19 14:39:00,
2013-01-19 09:44:00,42.8,33.3,30.48,NE,55,0.0,3.0,69,0.00,,---,0.00,214.00,VWS V14.01,2013-01-19 14:44:00,
2013-01-19 09:49:00,43.5,33.7,30.48,NE,56,0.0,1.0,68,0.00,,---,0.00,237.00,VWS V14.01,2013-01-19 14:49:00,
2013-01-19 09:54:00,44.4,35.2,30.48,ENE,60,0.0,0.0,70,0.00,,---,0.00,279.00,VWS V14.01,2013-01-19 14:54:00,
2013-01-19 09:59:00,45.4,34.7,30.48,ENE,60,0.0,0.0,66,0.00,,---,0.00,295.00,VWS V14.01,2013-01-19 14:59:00,
2013-01-19 10:04:00,46.1,34.2,30.48,East,85,0.0,4.0,63,0.00,,---,0.00,315.00,VWS V14.01,2013-01-19 15:04:00,
2013-01-19 10:09:00,47.3,35.0,30.48,East,84,0.0,1.0,62,0.00,,---,0.00,373.00,VWS V14.01,2013-01-19 15:09:00,
2013-01-19 10:14:00,48.1,34.9,30.48,East,84,0.0,0.0,60,0.00,,---,0.00,439.00,VWS V14.01,2013-01-19 15:14:00,
2013-01-19 10:19:00,48.4,34.8,30.47,East,92,0.0,4.0,59,0.00,,---,0.00,461.00,VWS V14.01,2013-01-19 15:19:00,
2013-01-19 10:24:00,49.0,35.3,30.47,East,101,5.0,5.0,59,0.00,,---,0.00,418.00,VWS V14.01,2013-01-19 15:24:00,
2013-01-19 10:30:00,49.3,35.6,30.47,ESE,110,0.0,1.0,59,0.00,,---,0.00,438.00,VWS V14.01,2013-01-19 15:30:00,
2013-01-19 10:35:00,50.0,35.4,30.47,ESE,103,0.0,0.0,57,0.00,,---,0.00,496.00,VWS V14.01,2013-01-19 15:35:00,
2013-01-19 10:40:00,50.3,35.2,30.47,ENE,64,0.0,3.0,56,0.00,,---,0.00,489.00,VWS V14.01,2013-01-19 15:40:00,
2013-01-19 10:45:00,50.5,36.3,30.47,ENE,65,0.0,2.0,58,0.00,,---,0.00,473.00,VWS V14.01,2013-01-19 15:45:00,
2013-01-19 10:50:00,50.9,35.3,30.47,NNE,28,0.0,4.0,55,0.00,,---,0.00,436.00,VWS V14.01,2013-01-19 15:50:00,
2013-01-19 10:55:00,51.1,35.5,30.46,NNE,29,0.0,0.0,55,0.00,,---,0.00,427.00,VWS V14.01,2013-01-19 15:55:00,
2013-01-19 11:00:00,51.5,35.9,30.46,North,5,2.0,5.0,55,0.00,,---,0.00,424.00,VWS V14.01,2013-01-19 16:00:00,
2013-01-19 11:05:00,51.5,35.0,30.45,North,5,0.0,1.0,53,0.00,,---,0.00,487.00,VWS V14.01,2013-01-19 16:05:00,
2013-01-19 11:10:00,52.1,35.5,30.45,North,10,1.0,1.0,53,0.00,,---,0.00,515.00,VWS V14.01,2013-01-19 16:10:00,
2013-01-19 11:15:00,52.2,34.6,30.45,ENE,61,0.0,3.0,51,0.00,,---,0.00,547.00,VWS V14.01,2013-01-19 16:15:00,
2013-01-19 11:21:00,52.5,34.4,30.44,SSE,167,4.0,6.0,50,0.00,,---,0.00,580.00,VWS V14.01,2013-01-19 16:21:00,
2013-01-19 11:26:00,53.0,36.3,30.44,ESE,109,4.0,4.0,53,0.00,,---,0.00,554.00,VWS V14.01,2013-01-19 16:26:00,
2013-01-19 11:31:00,53.4,35.7,30.43,ESE,113,0.0,1.0,51,0.00,,---,0.00,547.00,VWS V14.01,2013-01-19 16:31:00,
2013-01-19 11:36:00,53.6,35.9,30.43,ESE,110,0.0,4.0,51,0.00,,---,0.00,526.00,VWS V14.01,2013-01-19 16:36:00,
2013-01-19 11:41:00,54.1,35.9,30.43,SE,126,5.0,7.0,50,0.00,,---,0.00,483.00,VWS V14.01,2013-01-19 16:41:00,
2013-01-19 11:46:00,54.2,35.5,30.43,ESE,109,0.0,6.0,49,0.00,,---,0.00,406.00,VWS V14.01,2013-01-19 16:46:00,
2013-01-19 11:51:00,54.4,35.1,30.42,ESE,109,0.0,0.0,48,0.00,,---,0.00,352.00,VWS V14.01,2013-01-19 16:51:00,
2013-01-19 11:57:00,54.3,35.0,30.42,SW,228,0.0,0.0,48,0.00,,---,0.00,334.00,VWS V14.01,2013-01-19 16:57:00,
2013-01-19 12:02:00,54.6,35.8,30.41,SW,223,3.0,3.0,49,0.00,,---,0.00,410.00,VWS V14.01,2013-01-19 17:02:00,
2013-01-19 12:07:00,55.1,35.2,30.41,SW,227,0.0,0.0,47,0.00,,---,0.00,540.00,VWS V14.01,2013-01-19 17:07:00,
2013-01-19 12:13:00,55.6,35.7,30.41,South,175,0.0,0.0,47,0.00,,---,0.00,622.00,VWS V14.01,2013-01-19 17:13:00,
2013-01-19 12:18:00,56.0,36.6,30.40,South,175,0.0,0.0,48,0.00,,---,0.00,631.00,VWS V14.01,2013-01-19 17:18:00,
2013-01-19 12:23:00,56.0,36.1,30.40,SSW,196,0.0,0.0,47,0.00,,---,0.00,635.00,VWS V14.01,2013-01-19 17:23:00,
2013-01-19 12:29:00,56.0,36.6,30.39,SSW,196,2.0,3.0,48,0.00,,---,0.00,636.00,VWS V14.01,2013-01-19 17:29:00,
2013-01-19 12:34:00,56.1,36.7,30.38,SE,140,1.0,4.0,48,0.00,,---,0.00,638.00,VWS V14.01,2013-01-19 17:34:00,
2013-01-19 12:39:00,56.1,36.7,30.38,SE,140,0.0,0.0,48,0.00,,---,0.00,635.00,VWS V14.01,2013-01-19 17:39:00,
2013-01-19 12:44:00,56.5,37.6,30.37,SE,140,0.0,2.0,49,0.00,,---,0.00,636.00,VWS V14.01,2013-01-19 17:44:00,
2013-01-19 12:49:00,56.9,38.0,30.37,SE,144,4.0,5.0,49,0.00,,---,0.00,635.00,VWS V14.01,2013-01-19 17:49:00,
2013-01-19 12:54:00,56.9,38.0,30.37,SE,142,1.0,6.0,49,0.00,,---,0.00,650.00,VWS V14.01,2013-01-19 17:54:00,
2013-01-19 13:00:00,56.9,38.5,30.36,SE,142,0.0,0.0,50,0.00,,---,0.00,316.00,VWS V14.01,2013-01-19 18:00:00,
2013-01-19 13:05:00,57.3,38.3,30.36,SW,229,2.0,5.0,49,0.00,,---,0.00,779.00,VWS V14.01,2013-01-19 18:05:00,
2013-01-19 13:10:00,58.5,39.9,30.35,SW,228,5.0,5.0,50,0.00,,---,0.00,738.00,VWS V14.01,2013-01-19 18:10:00,
2013-01-19 13:15:00,58.6,39.0,30.35,SW,232,0.0,5.0,48,0.00,,---,0.00,401.00,VWS V14.01,2013-01-19 18:15:00,
2013-01-19 13:20:00,58.7,38.5,30.35,SW,232,0.0,1.0,47,0.00,,---,0.00,251.00,VWS V14.01,2013-01-19 18:20:00,
2013-01-19 13:25:00,58.3,38.7,30.34,SW,232,0.0,2.0,48,0.00,,---,0.00,311.00,VWS V14.01,2013-01-19 18:25:00,
2013-01-19 13:30:00,58.1,39.6,30.33,SW,231,2.0,2.0,50,0.00,,---,0.00,257.00,VWS V14.01,2013-01-19 18:30:00,
2013-01-19 13:35:00,58.3,39.8,30.33,SW,235,4.0,4.0,50,0.00,,---,0.00,290.00,VWS V14.01,2013-01-19 18:35:00,
2013-01-19 13:41:00,58.5,39.4,30.33,SW,236,0.0,4.0,49,0.00,,---,0.00,223.00,VWS V14.01,2013-01-19 18:41:00,
2013-01-19 13:46:00,58.6,39.5,30.33,SW,236,3.0,3.0,49,0.00,,---,0.00,232.00,VWS V14.01,2013-01-19 18:46:00,
2013-01-19 13:51:00,58.6,39.5,30.33,SW,236,2.0,4.0,49,0.00,,---,0.00,148.00,VWS V14.01,2013-01-19 18:51:00,
2013-01-19 13:57:00,58.6,40.0,30.32,SW,236,0.0,0.0,50,0.00,,---,0.00,149.00,VWS V14.01,2013-01-19 18:57:00,
2013-01-19 14:02:00,58.6,40.5,30.32,SW,236,0.0,0.0,51,0.00,,---,0.00,207.00,VWS V14.01,2013-01-19 19:02:00,
2013-01-19 14:07:00,58.5,41.0,30.32,SW,236,0.0,1.0,52,0.00,,---,0.00,292.00,VWS V14.01,2013-01-19 19:07:00,
2013-01-19 14:13:00,58.7,40.6,30.32,SW,234,5.0,5.0,51,0.00,,---,0.00,234.00,VWS V14.01,2013-01-19 19:13:00,
2013-01-19 14:19:00,58.7,40.6,30.32,SW,234,0.0,0.0,51,0.00,,---,0.00,169.00,VWS V14.01,2013-01-19 19:19:00,
2013-01-19 14:24:00,58.7,41.1,30.32,SW,231,0.0,3.0,52,0.00,,---,0.00,207.00,VWS V14.01,2013-01-19 19:24:00,
2013-01-19 14:29:00,58.7,41.1,30.31,SW,231,0.0,0.0,52,0.00,,---,0.00,200.00,VWS V14.01,2013-01-19 19:29:00,
2013-01-19 14:35:00,58.9,41.3,30.31,SW,232,4.0,4.0,52,0.00,,---,0.00,209.00,VWS V14.01,2013-01-19 19:35:00,
2013-01-19 14:40:00,59.0,41.4,30.31,SW,236,4.0,6.0,52,0.00,,---,0.00,230.00,VWS V14.01,2013-01-19 19:40:00,
2013-01-19 14:45:00,59.1,41.5,30.31,SW,236,0.0,4.0,52,0.00,,---,0.00,517.00,VWS V14.01,2013-01-19 19:45:00,
2013-01-19 14:50:00,59.3,41.7,30.31,SW,223,1.0,4.0,52,0.00,,---,0.00,130.00,VWS V14.01,2013-01-19 19:50:00,
2013-01-19 14:55:00,59.1,42.0,30.30,SW,226,1.0,6.0,53,0.00,,---,0.00,399.00,VWS V14.01,2013-01-19 19:55:00,
2013-01-19 15:01:00,59.7,43.5,30.30,SW,226,0.0,3.0,55,0.00,,---,0.00,392.00,VWS V14.01,2013-01-19 20:01:00,
2013-01-19 15:06:00,60.6,43.9,30.29,SW,226,0.0,1.0,54,0.00,,---,0.00,392.00,VWS V14.01,2013-01-19 20:06:00,
2013-01-19 15:11:00,60.7,43.0,30.29,SW,225,2.0,4.0,52,0.00,,---,0.00,387.00,VWS V14.01,2013-01-19 20:11:00,
2013-01-19 15:16:00,60.6,42.9,30.29,SW,221,0.0,6.0,52,0.00,,---,0.00,378.00,VWS V14.01,2013-01-19 20:16:00,
2013-01-19 15:21:00,60.8,42.6,30.29,SW,223,0.0,5.0,51,0.00,,---,0.00,353.00,VWS V14.01,2013-01-19 20:21:00,
2013-01-19 15:27:00,60.9,43.2,30.29,SW,223,1.0,1.0,52,0.00,,---,0.00,371.00,VWS V14.01,2013-01-19 20:27:00,
2013-01-19 15:32:00,60.8,43.1,30.29,SW,221,1.0,4.0,52,0.00,,---,0.00,279.00,VWS V14.01,2013-01-19 20:32:00,
2013-01-19 15:37:00,60.8,42.6,30.29,WSW,240,3.0,3.0,51,0.00,,---,0.00,359.00,VWS V14.01,2013-01-19 20:37:00,
2013-01-19 15:42:00,60.6,42.4,30.29,WSW,244,3.0,4.0,51,0.00,,---,0.00,127.00,VWS V14.01,2013-01-19 20:42:00,
2013-01-19 15:48:00,60.8,44.5,30.28,WSW,242,0.0,1.0,55,0.00,,---,0.00,353.00,VWS V14.01,2013-01-19 20:48:00,
2013-01-19 15:53:00,60.8,43.1,30.28,South,191,0.0,5.0,52,0.00,,---,0.00,316.00,VWS V14.01,2013-01-19 20:53:00,
2013-01-19 15:59:00,60.7,43.0,30.28,SSW,192,0.0,0.0,52,0.00,,---,0.00,264.00,VWS V14.01,2013-01-19 20:59:00,
2013-01-19 16:04:00,60.9,43.2,30.28,South,191,0.0,4.0,52,0.00,,---,0.00,267.00,VWS V14.01,2013-01-19 21:04:00,
2013-01-19 16:09:00,60.9,43.2,30.28,South,184,0.0,1.0,52,0.00,,---,0.00,288.00,VWS V14.01,2013-01-19 21:09:00,
2013-01-19 16:14:00,61.0,43.3,30.28,SSW,193,3.0,7.0,52,0.00,,---,0.00,156.00,VWS V14.01,2013-01-19 21:14:00,
2013-01-19 16:20:00,61.1,42.8,30.28,SW,224,4.0,5.0,51,0.00,,---,0.00,148.00,VWS V14.01,2013-01-19 21:20:00,
2013-01-19 16:25:00,61.0,42.8,30.28,SSW,213,0.0,6.0,51,0.00,,---,0.00,237.00,VWS V14.01,2013-01-19 21:25:00,
2013-01-19 16:30:00,60.8,42.6,30.28,SSW,213,0.0,2.0,51,0.00,,---,0.00,202.00,VWS V14.01,2013-01-19 21:30:00,
2013-01-19 16:35:00,60.9,42.2,30.28,SSW,213,0.0,4.0,50,0.00,,---,0.00,211.00,VWS V14.01,2013-01-19 21:35:00,
2013-01-19 16:41:00,60.9,42.7,30.27,SW,214,0.0,4.0,51,0.00,,---,0.00,158.00,VWS V14.01,2013-01-19 21:41:00,
2013-01-19 16:47:00,60.9,42.7,30.27,SSW,213,2.0,2.0,51,0.00,,---,0.00,139.00,VWS V14.01,2013-01-19 21:47:00,
2013-01-19 16:52:00,60.9,42.7,30.27,SSW,213,2.0,4.0,51,0.00,,---,0.00,98.00,VWS V14.01,2013-01-19 21:52:00,
2013-01-19 16:57:00,60.7,42.5,30.27,SSW,213,0.0,0.0,51,0.00,,---,0.00,100.00,VWS V14.01,2013-01-19 21:57:00,
2013-01-19 17:03:00,60.5,42.3,30.27,SSW,213,0.0,3.0,51,0.00,,---,0.00,88.00,VWS V14.01,2013-01-19 22:03:00,
2013-01-19 17:08:00,60.4,42.7,30.27,SSW,213,1.0,1.0,52,0.00,,---,0.00,60.00,VWS V14.01,2013-01-19 22:08:00,
2013-01-19 17:13:00,60.2,43.0,30.27,SSW,213,0.0,3.0,53,0.00,,---,0.00,49.00,VWS V14.01,2013-01-19 22:13:00,
2013-01-19 17:18:00,60.1,43.4,30.27,SSW,213,0.0,0.0,54,0.00,,---,0.00,42.00,VWS V14.01,2013-01-19 22:18:00,
2013-01-19 17:23:00,60.2,43.0,30.27,SSW,213,0.0,1.0,53,0.00,,---,0.00,33.00,VWS V14.01,2013-01-19 22:23:00,
2013-01-19 17:28:00,60.2,44.0,30.26,SSW,213,0.0,0.0,55,0.00,,---,0.00,23.00,VWS V14.01,2013-01-19 22:28:00,
2013-01-19 17:34:00,60.2,44.5,30.26,SSW,213,0.0,0.0,56,0.00,,---,0.00,12.00,VWS V14.01,2013-01-19 22:34:00,
2013-01-19 17:39:00,60.1,44.4,30.27,SSW,213,0.0,0.0,56,0.00,,---,0.00,9.00,VWS V14.01,2013-01-19 22:39:00,
2013-01-19 17:44:00,59.8,44.5,30.27,SSW,213,0.0,0.0,57,0.00,,---,0.00,0.00,VWS V14.01,2013-01-19 22:44:00,
2013-01-19 17:49:00,59.3,44.5,30.27,SSW,213,0.0,1.0,58,0.00,,---,0.00,0.00,VWS V14.01,2013-01-19 22:49:00,
2013-01-19 17:54:00,58.5,45.1,30.27,SSW,213,0.0,0.0,61,0.00,,---,0.00,0.00,VWS V14.01,2013-01-19 22:54:00,
2013-01-19 18:00:00,57.6,43.8,30.27,SSW,213,0.0,0.0,60,0.00,,---,0.00,0.00,VWS V14.01,2013-01-19 23:00:00,
2013-01-19 18:05:00,56.9,43.6,30.27,SSW,213,0.0,0.0,61,0.00,,---,0.00,0.00,VWS V14.01,2013-01-19 23:05:00,
2013-01-19 18:10:00,56.1,43.7,30.27,SSW,213,0.0,1.0,63,0.00,,---,0.00,0.00,VWS V14.01,2013-01-19 23:10:00,
2013-01-19 18:16:00,55.5,43.5,30.27,SSW,213,0.0,0.0,64,0.00,,---,0.00,0.00,VWS V14.01,2013-01-19 23:16:00,
2013-01-19 18:21:00,54.9,43.4,30.27,SSW,213,0.0,0.0,65,0.00,,---,0.00,0.00,VWS V14.01,2013-01-19 23:21:00,
2013-01-19 18:26:00,54.3,43.2,30.27,SSW,213,0.0,1.0,66,0.00,,---,0.00,0.00,VWS V14.01,2013-01-19 23:26:00,
2013-01-19 18:32:00,53.8,42.7,30.27,SSW,213,0.0,0.0,66,0.00,,---,0.00,0.00,VWS V14.01,2013-01-19 23:32:00,
2013-01-19 18:37:00,53.5,42.8,30.27,SSW,213,0.0,0.0,67,0.00,,---,0.00,0.00,VWS V14.01,2013-01-19 23:37:00,
2013-01-19 18:42:00,53.2,42.5,30.27,SSW,213,0.0,0.0,67,0.00,,---,0.00,0.00,VWS V14.01,2013-01-19 23:42:00,
2013-01-19 18:47:00,53.0,42.7,30.27,SSW,213,0.0,0.0,68,0.00,,---,0.00,0.00,VWS V14.01,2013-01-19 23:47:00,
2013-01-19 18:53:00,52.8,42.2,30.27,SSW,213,0.0,0.0,67,0.00,,---,0.00,0.00,VWS V14.01,2013-01-19 23:53:00,
2013-01-19 18:58:00,52.6,42.3,30.27,SSW,213,0.0,0.0,68,0.00,,---,0.00,0.00,VWS V14.01,2013-01-19 23:58:00,
2013-01-19 19:03:00,52.4,42.9,30.27,SSW,213,0.0,0.0,70,0.00,,---,0.00,0.00,VWS V14.01,2013-01-20 00:03:00,
2013-01-19 19:08:00,52.1,42.6,30.27,SSW,213,0.0,0.0,70,0.00,,---,0.00,0.00,VWS V14.01,2013-01-20 00:08:00,
2013-01-19 19:13:00,51.8,42.7,30.27,SSW,213,0.0,0.0,71,0.00,,---,0.00,0.00,VWS V14.01,2013-01-20 00:13:00,
2013-01-19 19:19:00,51.5,42.4,30.28,SSW,213,0.0,0.0,71,0.00,,---,0.00,0.00,VWS V14.01,2013-01-20 00:19:00,
2013-01-19 19:24:00,51.0,42.3,30.28,SSW,213,0.0,0.0,72,0.00,,---,0.00,0.00,VWS V14.01,2013-01-20 00:24:00,
2013-01-19 19:29:00,50.6,41.9,30.28,SSW,213,0.0,0.0,72,0.00,,---,0.00,0.00,VWS V14.01,2013-01-20 00:29:00,
2013-01-19 19:34:00,50.2,41.9,30.28,SSW,213,0.0,1.0,73,0.00,,---,0.00,0.00,VWS V14.01,2013-01-20 00:34:00,
2013-01-19 19:39:00,49.7,41.8,30.28,SSW,213,0.0,0.0,74,0.00,,---,0.00,0.00,VWS V14.01,2013-01-20 00:39:00,
2013-01-19 19:44:00,49.2,41.6,30.28,SSW,213,0.0,0.0,75,0.00,,---,0.00,0.00,VWS V14.01,2013-01-20 00:44:00,
2013-01-19 19:49:00,48.7,41.5,30.27,SSW,213,0.0,1.0,76,0.00,,---,0.00,0.00,VWS V14.01,2013-01-20 00:49:00,
2013-01-19 19:55:00,48.2,41.7,30.28,SSW,213,0.0,0.0,78,0.00,,---,0.00,0.00,VWS V14.01,2013-01-20 00:55:00,
2013-01-19 20:00:00,47.9,41.7,30.28,SSW,213,0.0,0.0,79,0.00,,---,0.00,0.00,VWS V14.01,2013-01-20 01:00:00,
2013-01-19 20:05:00,47.4,41.5,30.28,SSW,213,0.0,0.0,80,0.00,,---,0.00,0.00,VWS V14.01,2013-01-20 01:05:00,
2013-01-19 20:10:00,47.1,41.3,30.28,SSW,213,0.0,0.0,80,0.00,,---,0.00,0.00,VWS V14.01,2013-01-20 01:10:00,
2013-01-19 20:15:00,46.9,41.4,30.28,SSW,213,0.0,0.0,81,0.00,,---,0.00,0.00,VWS V14.01,2013-01-20 01:15:00,
2013-01-19 20:22:00,46.6,41.4,30.28,SSW,213,0.0,0.0,82,0.00,,---,0.00,0.00,VWS V14.01,2013-01-20 01:22:00,
2013-01-19 20:27:00,46.4,41.2,30.28,SSW,213,0.0,0.0,82,0.00,,---,0.00,0.00,VWS V14.01,2013-01-20 01:27:00,
2013-01-19 20:33:00,46.2,41.3,30.29,SSW,213,0.0,0.0,83,0.00,,---,0.00,0.00,VWS V14.01,2013-01-20 01:33:00,
2013-01-19 20:38:00,46.0,41.1,30.28,SSW,213,1.0,2.0,83,0.00,,---,0.00,0.00,VWS V14.01,2013-01-20 01:38:00,
2013-01-19 20:43:00,45.7,41.2,30.28,SSW,213,0.0,0.0,84,0.00,,---,0.00,0.00,VWS V14.01,2013-01-20 01:43:00,
2013-01-19 20:48:00,45.4,40.9,30.28,SSW,213,0.0,0.0,84,0.00,,---,0.00,0.00,VWS V14.01,2013-01-20 01:48:00,
2013-01-19 20:54:00,45.2,40.7,30.27,SSW,213,0.0,1.0,84,0.00,,---,0.00,0.00,VWS V14.01,2013-01-20 01:54:00,
2013-01-19 21:00:00,44.9,40.7,30.27,SSW,213,0.0,1.0,85,0.00,,---,0.00,0.00,VWS V14.01,2013-01-20 02:00:00,
2013-01-19 21:05:00,44.8,40.6,30.27,SSW,213,0.0,0.0,85,0.00,,---,0.00,0.00,VWS V14.01,2013-01-20 02:05:00,
2013-01-19 21:10:00,44.7,40.5,30.27,SSW,213,0.0,0.0,85,0.00,,---,0.00,0.00,VWS V14.01,2013-01-20 02:10:00,
2013-01-19 21:15:00,44.7,40.5,30.27,SSW,213,0.0,0.0,85,0.00,,---,0.00,0.00,VWS V14.01,2013-01-20 02:15:00,
2013-01-19 21:21:00,44.5,40.6,30.27,SSW,213,0.0,0.0,86,0.00,,---,0.00,0.00,VWS V14.01,2013-01-20 02:21:00,
2013-01-19 21:26:00,44.4,40.5,30.27,SSW,213,0.0,0.0,86,0.00,,---,0.00,0.00,VWS V14.01,2013-01-20 02:26:00,
2013-01-19 21:32:00,44.3,40.4,30.27,SSW,213,0.0,0.0,86,0.00,,---,0.00,0.00,VWS V14.01,2013-01-20 02:32:00,
2013-01-19 21:37:00,44.2,40.3,30.26,SSW,213,0.0,0.0,86,0.00,,---,0.00,0.00,VWS V14.01,2013-01-20 02:37:00,
2013-01-19 21:42:00,44.1,40.2,30.26,SSW,213,0.0,0.0,86,0.00,,---,0.00,0.00,VWS V14.01,2013-01-20 02:42:00,
2013-01-19 21:47:00,44.0,40.1,30.26,SSW,213,0.0,0.0,86,0.00,,---,0.00,0.00,VWS V14.01,2013-01-20 02:47:00,
2013-01-19 21:53:00,43.8,39.9,30.26,SSW,213,0.0,0.0,86,0.00,,---,0.00,0.00,VWS V14.01,2013-01-20 02:53:00,
2013-01-19 21:58:00,43.7,39.8,30.26,SSW,213,0.0,0.0,86,0.00,,---,0.00,0.00,VWS V14.01,2013-01-20 02:58:00,
2013-01-19 22:03:00,43.5,39.9,30.26,SSW,213,0.0,0.0,87,0.00,,---,0.00,0.00,VWS V14.01,2013-01-20 03:03:00,
2013-01-19 22:08:00,43.4,39.5,30.26,SSW,213,0.0,0.0,86,0.00,,---,0.00,0.00,VWS V14.01,2013-01-20 03:08:00,
2013-01-19 22:14:00,43.2,39.3,30.26,SSW,213,0.0,0.0,86,0.00,,---,0.00,0.00,VWS V14.01,2013-01-20 03:14:00,
2013-01-19 22:19:00,43.1,39.5,30.26,SSW,213,0.0,0.0,87,0.00,,---,0.00,0.00,VWS V14.01,2013-01-20 03:19:00,
2013-01-19 22:24:00,42.9,39.3,30.25,SSW,213,0.0,0.0,87,0.00,,---,0.00,0.00,VWS V14.01,2013-01-20 03:24:00,
2013-01-19 22:29:00,42.8,39.5,30.25,SSW,213,0.0,0.0,88,0.00,,---,0.00,0.00,VWS V14.01,2013-01-20 03:29:00,
2013-01-19 22:34:00,42.7,39.4,30.25,SSW,213,0.0,0.0,88,0.00,,---,0.00,0.00,VWS V14.01,2013-01-20 03:34:00,
2013-01-19 22:39:00,42.6,39.3,30.26,SSW,213,0.0,0.0,88,0.00,,---,0.00,0.00,VWS V14.01,2013-01-20 03:39:00,
2013-01-19 22:44:00,42.5,39.2,30.25,SSW,213,0.0,0.0,88,0.00,,---,0.00,0.00,VWS V14.01,2013-01-20 03:44:00,
2013-01-19 22:49:00,42.3,39.0,30.25,SSW,213,0.0,0.0,88,0.00,,---,0.00,0.00,VWS V14.01,2013-01-20 03:49:00,
2013-01-19 22:54:00,42.2,38.9,30.25,SSW,213,0.0,0.0,88,0.00,,---,0.00,0.00,VWS V14.01,2013-01-20 03:54:00,
2013-01-19 22:59:00,42.1,38.8,30.25,SSW,213,0.0,0.0,88,0.00,,---,0.00,0.00,VWS V14.01,2013-01-20 03:59:00,
2013-01-19 23:04:00,41.9,38.6,30.25,SSW,213,0.0,0.0,88,0.00,,---,0.00,0.00,VWS V14.01,2013-01-20 04:04:00,
2013-01-19 23:09:00,41.8,38.5,30.24,SSW,213,0.0,0.0,88,0.00,,---,0.00,0.00,VWS V14.01,2013-01-20 04:09:00,
2013-01-19 23:14:00,41.7,38.7,30.24,SSW,213,0.0,0.0,89,0.00,,---,0.00,0.00,VWS V14.01,2013-01-20 04:14:00,
2013-01-19 23:19:00,41.6,38.6,30.24,SSW,213,0.0,0.0,89,0.00,,---,0.00,0.00,VWS V14.01,2013-01-20 04:19:00,
2013-01-19 23:24:00,41.5,38.5,30.24,SSW,213,0.0,0.0,89,0.00,,---,0.00,0.00,VWS V14.01,2013-01-20 04:24:00,
2013-01-19 23:30:00,41.4,38.4,30.24,SSW,213,0.0,0.0,89,0.00,,---,0.00,0.00,VWS V14.01,2013-01-20 04:30:00,
2013-01-19 23:35:00,41.3,38.3,30.24,SSW,213,0.0,0.0,89,0.00,,---,0.00,0.00,VWS V14.01,2013-01-20 04:35:00,
2013-01-19 23:40:00,41.2,38.2,30.23,SSW,213,0.0,0.0,89,0.00,,---,0.00,0.00,VWS V14.01,2013-01-20 04:40:00,
2013-01-19 23:45:00,41.1,38.1,30.23,SSW,213,0.0,0.0,89,0.00,,---,0.00,0.00,VWS V14.01,2013-01-20 04:45:00,
2013-01-19 23:50:00,41.1,38.1,30.23,SSW,213,0.0,0.0,89,0.00,,---,0.00,0.00,VWS V14.01,2013-01-20 04:50:00,
2013-01-19 23:55:00,41.0,38.0,30.23,SSW,213,0.0,0.0,89,0.00,,---,0.00,0.00,VWS V14.01,2013-01-20 04:55:00,